createdAt,value
2019-03-09T00:00:36.250Z,0.00
2019-03-09T00:01:36.405Z,0.00
2019-03-09T00:02:36.588Z,0.00
2019-03-09T00:03:36.752Z,0.00
2019-03-09T00:04:36.922Z,0.00
2019-03-09T00:05:37.095Z,0.00
2019-03-09T00:06:37.266Z,0.00
2019-03-09T00:07:37.439Z,0.00
2019-03-09T00:08:37.615Z,0.00
2019-03-09T00:09:37.798Z,0.00
2019-03-09T00:10:37.965Z,0.00
2019-03-09T00:11:38.134Z,0.00
2019-03-09T00:12:38.307Z,0.00
2019-03-09T00:13:38.480Z,0.00
2019-03-09T00:14:38.648Z,0.00
2019-03-09T00:15:38.821Z,0.00
2019-03-09T00:16:39.003Z,0.00
2019-03-09T00:17:39.173Z,0.00
2019-03-09T00:18:39.340Z,0.00
2019-03-09T00:19:39.522Z,0.00
2019-03-09T00:20:39.683Z,0.00
2019-03-09T00:21:39.857Z,0.00
2019-03-09T00:22:40.022Z,0.00
2019-03-09T00:23:40.192Z,0.00
2019-03-09T00:24:40.366Z,0.00
2019-03-09T00:25:40.538Z,0.00
2019-03-09T00:26:40.715Z,0.00
2019-03-09T00:27:40.893Z,0.00
2019-03-09T00:28:41.058Z,0.00
2019-03-09T00:29:41.234Z,0.00
2019-03-09T00:30:41.407Z,0.00
2019-03-09T00:31:41.594Z,0.00
2019-03-09T00:32:41.747Z,0.00
2019-03-09T00:33:41.918Z,0.00
2019-03-09T00:34:42.102Z,0.00
2019-03-09T00:35:42.262Z,0.00
2019-03-09T00:36:42.433Z,0.00
2019-03-09T00:37:42.605Z,0.00
2019-03-09T00:38:42.775Z,0.00
2019-03-09T00:39:42.953Z,0.00
2019-03-09T00:40:43.122Z,0.00
2019-03-09T00:41:43.297Z,0.00
2019-03-09T00:42:43.472Z,0.00
2019-03-09T00:43:43.639Z,0.00
2019-03-09T00:44:43.811Z,0.00
2019-03-09T00:45:43.984Z,0.00
2019-03-09T00:46:44.153Z,0.00
2019-03-09T00:47:44.328Z,0.00
2019-03-09T00:48:44.498Z,0.00
2019-03-09T00:49:44.677Z,0.00
2019-03-09T00:50:44.848Z,0.00
2019-03-09T00:51:45.018Z,0.00
2019-03-09T00:52:45.195Z,0.00
2019-03-09T00:53:45.379Z,0.00
2019-03-09T00:54:45.565Z,0.00
2019-03-09T00:55:45.718Z,0.00
2019-03-09T00:56:45.883Z,0.00
2019-03-09T00:57:46.054Z,0.00
2019-03-09T00:58:46.229Z,0.00
2019-03-09T00:59:46.399Z,0.00
2019-03-09T01:00:46.575Z,0.00
2019-03-09T01:01:46.760Z,0.00
2019-03-09T01:02:46.942Z,0.00
2019-03-09T01:03:47.107Z,0.00
2019-03-09T01:04:47.276Z,0.00
2019-03-09T01:05:47.448Z,0.00
2019-03-09T01:06:47.623Z,0.00
2019-03-09T01:07:47.789Z,0.00
2019-03-09T01:08:47.961Z,0.00
2019-03-09T01:09:48.148Z,0.00
2019-03-09T01:10:48.312Z,0.00
2019-03-09T01:11:48.484Z,0.00
2019-03-09T01:12:48.643Z,0.00
2019-03-09T01:13:48.818Z,0.00
2019-03-09T01:14:48.995Z,0.00
2019-03-09T01:15:49.191Z,0.00
2019-03-09T01:16:49.332Z,0.00
2019-03-09T01:17:49.506Z,0.00
2019-03-09T01:18:49.680Z,0.00
2019-03-09T01:19:49.854Z,0.00
2019-03-09T01:20:50.027Z,0.00
2019-03-09T01:21:50.198Z,0.00
2019-03-09T01:22:50.368Z,0.00
2019-03-09T01:23:50.538Z,0.00
2019-03-09T01:24:50.702Z,0.00
2019-03-09T01:25:50.883Z,0.00
2019-03-09T01:26:51.046Z,0.00
2019-03-09T01:27:51.220Z,0.00
2019-03-09T01:28:51.389Z,0.00
2019-03-09T01:29:51.561Z,0.00
2019-03-09T01:30:51.733Z,0.00
2019-03-09T01:31:51.913Z,0.00
2019-03-09T01:32:52.074Z,0.00
2019-03-09T01:33:52.247Z,0.00
2019-03-09T01:34:52.422Z,0.00
2019-03-09T01:35:52.595Z,0.00
2019-03-09T01:36:52.766Z,0.00
2019-03-09T01:37:52.934Z,0.00
2019-03-09T01:38:53.105Z,0.00
2019-03-09T01:39:53.277Z,0.00
2019-03-09T01:40:53.450Z,0.00
2019-03-09T01:41:53.618Z,0.00
2019-03-09T01:42:53.796Z,0.00
2019-03-09T01:43:53.968Z,0.00
2019-03-09T01:44:54.141Z,0.00
2019-03-09T01:45:54.312Z,0.00
2019-03-09T01:46:54.486Z,0.00
2019-03-09T01:47:54.656Z,0.00
2019-03-09T01:48:54.826Z,0.00
2019-03-09T01:49:55.005Z,0.00
2019-03-09T01:50:55.178Z,0.00
2019-03-09T01:51:55.334Z,0.00
2019-03-09T01:52:55.512Z,0.00
2019-03-09T01:53:55.684Z,0.00
2019-03-09T01:54:55.863Z,0.00
2019-03-09T01:55:56.035Z,0.00
2019-03-09T01:56:56.203Z,0.00
2019-03-09T01:57:56.378Z,0.00
2019-03-09T01:58:56.554Z,0.00
2019-03-09T01:59:56.722Z,0.00
2019-03-09T02:00:56.895Z,0.00
2019-03-09T02:01:57.063Z,0.00
2019-03-09T02:02:57.233Z,0.00
2019-03-09T02:03:57.409Z,0.00
2019-03-09T02:04:57.581Z,0.00
2019-03-09T02:05:57.753Z,0.00
2019-03-09T02:06:57.928Z,0.00
2019-03-09T02:07:58.099Z,0.00
2019-03-09T02:08:58.272Z,0.00
2019-03-09T02:09:58.455Z,0.00
2019-03-09T02:10:58.621Z,0.00
2019-03-09T02:11:58.809Z,0.00
2019-03-09T02:12:58.975Z,0.00
2019-03-09T02:13:59.142Z,0.00
2019-03-09T02:14:59.312Z,0.00
2019-03-09T02:15:59.489Z,0.00
2019-03-09T02:16:59.661Z,0.00
2019-03-09T02:17:59.843Z,0.00
2019-03-09T02:19:00.001Z,0.00
2019-03-09T02:20:00.395Z,0.00
2019-03-09T02:21:00.338Z,0.00
2019-03-09T02:22:00.510Z,0.00
2019-03-09T02:23:00.685Z,0.00
2019-03-09T02:24:00.856Z,0.00
2019-03-09T02:25:01.029Z,0.00
2019-03-09T02:26:01.199Z,0.00
2019-03-09T02:27:01.380Z,0.00
2019-03-09T02:28:01.542Z,0.00
2019-03-09T02:29:01.720Z,0.00
2019-03-09T02:30:01.901Z,0.00
2019-03-09T02:31:02.055Z,0.00
2019-03-09T02:32:02.230Z,0.00
2019-03-09T02:33:02.400Z,0.00
2019-03-09T02:34:02.577Z,0.00
2019-03-09T02:35:02.753Z,0.00
2019-03-09T02:36:02.918Z,0.00
2019-03-09T02:37:03.098Z,0.00
2019-03-09T02:38:03.266Z,0.00
2019-03-09T02:39:03.445Z,0.00
2019-03-09T02:40:03.610Z,0.00
2019-03-09T02:41:03.779Z,0.00
2019-03-09T02:42:04.016Z,0.00
2019-03-09T02:43:04.123Z,0.00
2019-03-09T02:44:04.297Z,0.00
2019-03-09T02:45:04.475Z,0.00
2019-03-09T02:46:04.637Z,0.00
2019-03-09T02:47:04.809Z,0.00
2019-03-09T02:48:04.982Z,0.00
2019-03-09T02:49:05.157Z,0.00
2019-03-09T02:50:05.336Z,0.00
2019-03-09T02:51:05.507Z,0.00
2019-03-09T02:52:05.683Z,0.00
2019-03-09T02:53:05.837Z,0.00
2019-03-09T02:54:06.009Z,0.00
2019-03-09T02:55:06.183Z,0.00
2019-03-09T02:56:06.362Z,0.00
2019-03-09T02:57:06.531Z,0.00
2019-03-09T02:58:06.699Z,0.00
2019-03-09T02:59:06.872Z,0.00
2019-03-09T03:00:07.082Z,0.00
2019-03-09T03:01:07.214Z,0.00
2019-03-09T03:02:07.389Z,0.00
2019-03-09T03:03:07.558Z,0.00
2019-03-09T03:04:07.735Z,0.00
2019-03-09T03:05:07.943Z,0.00
2019-03-09T03:06:08.087Z,0.00
2019-03-09T03:07:08.247Z,0.00
2019-03-09T03:08:08.422Z,0.00
2019-03-09T03:09:08.588Z,0.00
2019-03-09T03:10:08.767Z,0.00
2019-03-09T03:11:08.931Z,0.00
2019-03-09T03:12:09.103Z,0.00
2019-03-09T03:13:09.280Z,0.00
2019-03-09T03:14:09.449Z,0.00
2019-03-09T03:15:09.616Z,0.00
2019-03-09T03:16:09.796Z,0.00
2019-03-09T03:17:09.965Z,0.00
2019-03-09T03:18:10.138Z,0.00
2019-03-09T03:19:10.334Z,0.00
2019-03-09T03:20:10.481Z,0.00
2019-03-09T03:21:10.652Z,0.00
2019-03-09T03:22:10.822Z,0.00
2019-03-09T03:23:10.997Z,0.00
2019-03-09T03:24:11.167Z,0.00
2019-03-09T03:25:11.331Z,0.00
2019-03-09T03:26:11.511Z,0.00
2019-03-09T03:27:11.679Z,0.00
2019-03-09T03:28:11.920Z,0.00
2019-03-09T03:29:12.023Z,0.00
2019-03-09T03:30:12.189Z,0.00
2019-03-09T03:31:12.366Z,0.00
2019-03-09T03:32:12.537Z,0.00
2019-03-09T03:33:12.714Z,0.00
2019-03-09T03:34:13.504Z,0.00
2019-03-09T03:35:13.048Z,0.00
2019-03-09T03:36:13.221Z,0.00
2019-03-09T03:37:13.391Z,0.00
2019-03-09T03:38:13.569Z,0.00
2019-03-09T03:39:13.751Z,0.00
2019-03-09T03:40:13.912Z,0.00
2019-03-09T03:41:14.087Z,0.00
2019-03-09T03:42:14.259Z,0.00
2019-03-09T03:43:16.157Z,0.00
2019-03-09T03:44:14.603Z,0.00
2019-03-09T03:45:14.775Z,0.00
2019-03-09T03:46:14.946Z,0.00
2019-03-09T03:47:15.137Z,0.00
2019-03-09T03:48:15.304Z,0.00
2019-03-09T03:49:15.470Z,0.00
2019-03-09T03:50:15.635Z,0.00
2019-03-09T03:51:15.811Z,0.00
2019-03-09T03:52:15.983Z,0.00
2019-03-09T03:53:16.148Z,0.00
2019-03-09T03:54:16.324Z,0.00
2019-03-09T03:55:16.496Z,0.00
2019-03-09T03:56:16.667Z,0.00
2019-03-09T03:57:16.839Z,0.00
2019-03-09T03:58:17.076Z,0.00
2019-03-09T03:59:17.183Z,0.00
2019-03-09T04:00:17.353Z,0.00
2019-03-09T04:01:17.520Z,0.00
2019-03-09T04:02:17.694Z,0.00
2019-03-09T04:03:17.868Z,0.00
2019-03-09T04:04:18.046Z,0.00
2019-03-09T04:05:18.209Z,0.00
2019-03-09T04:06:18.391Z,0.00
2019-03-09T04:07:18.552Z,0.00
2019-03-09T04:08:18.724Z,0.00
2019-03-09T04:09:18.904Z,0.00
2019-03-09T04:10:19.073Z,0.00
2019-03-09T04:11:19.250Z,0.00
2019-03-09T04:12:19.414Z,0.00
2019-03-09T04:13:19.596Z,0.00
2019-03-09T04:14:19.771Z,0.00
2019-03-09T04:15:19.924Z,0.00
2019-03-09T04:16:20.097Z,0.00
2019-03-09T04:17:20.270Z,0.00
2019-03-09T04:18:20.447Z,0.00
2019-03-09T04:19:20.612Z,0.00
2019-03-09T04:20:20.794Z,0.00
2019-03-09T04:21:20.956Z,0.00
2019-03-09T04:22:21.131Z,0.00
2019-03-09T04:23:21.380Z,0.00
2019-03-09T04:24:21.473Z,0.00
2019-03-09T04:25:21.702Z,0.00
2019-03-09T04:26:21.817Z,0.00
2019-03-09T04:27:21.998Z,0.00
2019-03-09T04:28:22.163Z,0.00
2019-03-09T04:29:22.337Z,0.00
2019-03-09T04:30:22.511Z,0.00
2019-03-09T04:31:22.678Z,0.00
2019-03-09T04:32:22.855Z,0.00
2019-03-09T04:33:23.022Z,0.00
2019-03-09T04:34:23.190Z,0.00
2019-03-09T04:35:23.364Z,0.00
2019-03-09T04:36:23.533Z,0.00
2019-03-09T04:37:23.715Z,0.00
2019-03-09T04:38:23.875Z,0.00
2019-03-09T04:39:24.050Z,0.00
2019-03-09T04:40:24.224Z,0.00
2019-03-09T04:41:24.395Z,0.00
2019-03-09T04:42:24.575Z,0.00
2019-03-09T04:43:24.741Z,0.00
2019-03-09T04:44:27.074Z,0.00
2019-03-09T04:45:25.105Z,0.00
2019-03-09T04:46:25.251Z,0.00
2019-03-09T04:47:25.423Z,0.00
2019-03-09T04:48:25.601Z,0.00
2019-03-09T04:49:25.774Z,0.00
2019-03-09T04:50:25.943Z,0.00
2019-03-09T04:51:26.127Z,0.00
2019-03-09T04:52:26.288Z,0.00
2019-03-09T04:53:26.458Z,0.00
2019-03-09T04:54:26.633Z,0.00
2019-03-09T04:55:26.801Z,0.00
2019-03-09T04:56:26.973Z,0.00
2019-03-09T04:57:27.151Z,0.00
2019-03-09T04:58:27.316Z,0.00
2019-03-09T04:59:27.476Z,0.00
2019-03-09T05:00:27.650Z,0.00
2019-03-09T05:01:27.824Z,0.00
2019-03-09T05:02:27.995Z,0.00
2019-03-09T05:03:28.169Z,0.00
2019-03-09T05:04:28.343Z,0.00
2019-03-09T05:05:28.512Z,0.00
2019-03-09T05:06:28.687Z,0.00
2019-03-09T05:07:28.858Z,0.00
2019-03-09T05:08:29.034Z,0.00
2019-03-09T05:09:29.200Z,0.00
2019-03-09T05:10:29.377Z,0.00
2019-03-09T05:11:29.554Z,0.00
2019-03-09T05:12:29.709Z,0.00
2019-03-09T05:13:29.879Z,0.00
2019-03-09T05:14:30.058Z,0.00
2019-03-09T05:15:30.220Z,0.00
2019-03-09T05:16:30.413Z,0.00
2019-03-09T05:17:30.569Z,0.00
2019-03-09T05:18:30.744Z,0.00
2019-03-09T05:19:30.913Z,0.00
2019-03-09T05:20:31.084Z,0.00
2019-03-09T05:21:31.265Z,0.00
2019-03-09T05:22:31.429Z,0.00
2019-03-09T05:23:31.603Z,0.00
2019-03-09T05:24:31.775Z,0.00
2019-03-09T05:25:31.957Z,0.00
2019-03-09T05:26:32.121Z,0.00
2019-03-09T05:27:32.295Z,0.00
2019-03-09T05:28:32.468Z,0.00
2019-03-09T05:29:32.643Z,0.00
2019-03-09T05:30:32.812Z,4.00
2019-03-09T05:31:32.984Z,4.00
2019-03-09T05:32:33.153Z,4.00
2019-03-09T05:33:33.326Z,0.00
2019-03-09T05:34:33.498Z,0.00
2019-03-09T05:35:33.682Z,0.00
2019-03-09T05:36:33.840Z,4.00
2019-03-09T05:37:42.840Z,4.00
2019-03-09T05:38:34.195Z,4.00
2019-03-09T05:39:34.363Z,4.00
2019-03-09T05:40:34.531Z,4.00
2019-03-09T05:41:34.706Z,8.00
2019-03-09T05:42:34.875Z,12.00
2019-03-09T05:43:35.050Z,8.00
2019-03-09T05:44:35.222Z,12.00
2019-03-09T05:45:35.392Z,12.00
2019-03-09T05:46:35.568Z,12.00
2019-03-09T05:47:35.735Z,16.00
2019-03-09T05:48:35.905Z,20.00
2019-03-09T05:49:36.078Z,20.00
2019-03-09T05:50:36.250Z,24.00
2019-03-09T05:51:36.421Z,24.00
2019-03-09T05:52:36.600Z,28.00
2019-03-09T05:53:36.766Z,36.00
2019-03-09T05:54:36.936Z,36.00
2019-03-09T05:55:37.113Z,36.00
2019-03-09T05:56:37.285Z,36.00
2019-03-09T05:57:37.456Z,40.00
2019-03-09T05:58:37.625Z,44.00
2019-03-09T05:59:37.801Z,44.00
2019-03-09T06:00:37.973Z,48.00
2019-03-09T06:01:38.146Z,60.00
2019-03-09T06:02:38.322Z,64.00
2019-03-09T06:03:38.507Z,72.00
2019-03-09T06:04:38.679Z,76.00
2019-03-09T06:05:38.852Z,104.00
2019-03-09T06:06:39.028Z,100.00
2019-03-09T06:07:39.201Z,84.00
2019-03-09T06:08:39.377Z,84.00
2019-03-09T06:09:39.544Z,84.00
2019-03-09T06:10:39.715Z,92.00
2019-03-09T06:11:39.886Z,124.00
2019-03-09T06:12:40.054Z,152.00
2019-03-09T06:13:40.236Z,172.00
2019-03-09T06:14:40.406Z,160.00
2019-03-09T06:15:40.571Z,140.00
2019-03-09T06:16:40.746Z,132.00
2019-03-09T06:17:40.918Z,124.00
2019-03-09T06:18:41.094Z,164.00
2019-03-09T06:19:41.263Z,156.00
2019-03-09T06:20:41.436Z,136.00
2019-03-09T06:21:41.607Z,156.00
2019-03-09T06:22:41.797Z,148.00
2019-03-09T06:23:41.955Z,208.00
2019-03-09T06:24:42.129Z,260.00
2019-03-09T06:25:42.309Z,336.00
2019-03-09T06:26:42.469Z,292.00
2019-03-09T06:27:42.644Z,236.00
2019-03-09T06:28:42.807Z,200.00
2019-03-09T06:29:42.983Z,144.00
2019-03-09T06:30:43.156Z,144.00
2019-03-09T06:31:43.331Z,224.00
2019-03-09T06:32:43.500Z,292.00
2019-03-09T06:33:43.682Z,344.00
2019-03-09T06:34:43.850Z,284.00
2019-03-09T06:35:44.020Z,212.00
2019-03-09T06:36:44.192Z,212.00
2019-03-09T06:37:44.376Z,204.00
2019-03-09T06:38:44.539Z,220.00
2019-03-09T06:39:44.716Z,196.00
2019-03-09T06:40:44.882Z,208.00
2019-03-09T06:41:45.069Z,180.00
2019-03-09T06:42:45.226Z,188.00
2019-03-09T06:43:45.405Z,184.00
2019-03-09T06:44:45.573Z,208.00
2019-03-09T06:45:45.746Z,252.00
2019-03-09T06:46:45.932Z,364.00
2019-03-09T06:47:46.093Z,392.00
2019-03-09T06:48:46.264Z,452.00
2019-03-09T06:49:46.433Z,760.00
2019-03-09T06:50:46.609Z,948.00
2019-03-09T06:51:46.779Z,1144.00
2019-03-09T06:52:46.952Z,904.00
2019-03-09T06:53:47.125Z,1040.00
2019-03-09T06:54:47.293Z,1032.00
2019-03-09T06:55:47.462Z,1112.00
2019-03-09T06:56:47.646Z,960.00
2019-03-09T06:57:47.813Z,564.00
2019-03-09T06:58:47.981Z,344.00
2019-03-09T06:59:48.158Z,356.00
2019-03-09T07:00:48.324Z,412.00
2019-03-09T07:01:48.497Z,504.00
2019-03-09T07:02:48.679Z,480.00
2019-03-09T07:03:48.841Z,468.00
2019-03-09T07:04:49.014Z,492.00
2019-03-09T07:05:49.193Z,516.00
2019-03-09T07:06:49.363Z,524.00
2019-03-09T07:07:49.535Z,580.00
2019-03-09T07:08:49.705Z,660.00
2019-03-09T07:09:49.888Z,628.00
2019-03-09T07:10:50.053Z,584.00
2019-03-09T07:11:50.247Z,616.00
2019-03-09T07:12:50.388Z,836.00
2019-03-09T07:13:53.197Z,1196.00
2019-03-09T07:14:50.734Z,912.00
2019-03-09T07:15:51.043Z,912.00
2019-03-09T07:16:51.119Z,952.00
2019-03-09T07:17:51.253Z,1116.00
2019-03-09T07:18:51.421Z,1176.00
2019-03-09T07:19:51.603Z,1312.00
2019-03-09T07:20:51.777Z,1320.00
2019-03-09T07:21:51.925Z,1060.00
2019-03-09T07:22:52.105Z,1136.00
2019-03-09T07:23:53.825Z,1324.00
2019-03-09T07:24:52.453Z,1196.00
2019-03-09T07:25:52.629Z,1312.00
2019-03-09T07:26:52.801Z,1300.00
2019-03-09T07:27:52.980Z,1164.00
2019-03-09T07:28:53.140Z,1552.00
2019-03-09T07:29:53.322Z,1528.00
2019-03-09T07:30:53.483Z,1120.00
2019-03-09T07:31:53.703Z,1176.00
2019-03-09T07:32:53.779Z,1396.00
2019-03-09T07:33:53.934Z,1292.00
2019-03-09T07:34:54.112Z,1160.00
2019-03-09T07:35:54.304Z,1360.00
2019-03-09T07:36:54.474Z,1412.00
2019-03-09T07:37:54.643Z,1536.00
2019-03-09T07:38:54.816Z,1740.00
2019-03-09T07:39:54.987Z,2032.00
2019-03-09T07:40:55.157Z,1884.00
2019-03-09T07:41:55.328Z,2056.00
2019-03-09T07:42:55.504Z,2020.00
2019-03-09T07:43:55.678Z,2076.00
2019-03-09T07:44:55.859Z,1760.00
2019-03-09T07:45:56.038Z,1820.00
2019-03-09T07:46:56.202Z,2452.00
2019-03-09T07:47:56.375Z,3264.00
2019-03-09T07:48:56.527Z,2824.00
2019-03-09T07:49:56.702Z,4316.00
2019-03-09T07:50:56.879Z,4024.00
2019-03-09T07:51:57.059Z,2216.00
2019-03-09T07:52:57.221Z,3036.00
2019-03-09T07:53:57.396Z,3400.00
2019-03-09T07:54:57.568Z,4604.00
2019-03-09T07:55:57.749Z,2880.00
2019-03-09T07:56:57.918Z,3232.00
2019-03-09T07:57:58.084Z,3264.00
2019-03-09T07:58:58.253Z,3852.00
2019-03-09T07:59:58.450Z,4612.00
2019-03-09T08:00:58.622Z,6180.00
2019-03-09T08:01:58.790Z,2608.00
2019-03-09T08:02:59.086Z,1696.00
2019-03-09T08:03:59.134Z,1232.00
2019-03-09T08:04:59.325Z,1020.00
2019-03-09T08:05:59.474Z,1016.00
2019-03-09T08:06:59.621Z,1200.00
2019-03-09T08:07:59.784Z,1436.00
2019-03-09T08:08:59.957Z,1424.00
2019-03-09T08:10:00.146Z,1696.00
2019-03-09T08:11:00.308Z,1924.00
2019-03-09T08:12:00.485Z,2044.00
2019-03-09T08:13:00.655Z,2688.00
2019-03-09T08:14:00.840Z,3580.00
2019-03-09T08:15:00.998Z,3172.00
2019-03-09T08:16:01.172Z,2704.00
2019-03-09T08:17:01.356Z,3496.00
2019-03-09T08:18:01.527Z,2928.00
2019-03-09T08:19:01.709Z,2172.00
2019-03-09T08:20:01.901Z,2236.00
2019-03-09T08:21:02.070Z,2276.00
2019-03-09T08:22:02.248Z,2388.00
2019-03-09T08:23:02.830Z,2912.00
2019-03-09T08:24:02.585Z,3108.00
2019-03-09T08:25:02.755Z,3340.00
2019-03-09T08:26:03.019Z,3684.00
2019-03-09T08:27:03.117Z,3512.00
2019-03-09T08:28:03.282Z,2740.00
2019-03-09T08:29:03.448Z,2256.00
2019-03-09T08:30:03.655Z,1852.00
2019-03-09T08:31:03.799Z,1432.00
2019-03-09T08:32:03.990Z,1208.00
2019-03-09T08:33:04.146Z,1076.00
2019-03-09T08:34:04.324Z,1224.00
2019-03-09T08:35:04.495Z,2352.00
2019-03-09T08:36:04.658Z,2648.00
2019-03-09T08:37:04.835Z,2816.00
2019-03-09T08:38:05.024Z,3404.00
2019-03-09T08:39:05.186Z,3528.00
2019-03-09T08:40:05.378Z,3832.00
2019-03-09T08:41:05.535Z,4400.00
2019-03-09T08:42:05.704Z,5068.00
2019-03-09T08:43:05.878Z,4512.00
2019-03-09T08:44:06.049Z,4360.00
2019-03-09T08:45:06.249Z,4044.00
2019-03-09T08:46:06.409Z,3664.00
2019-03-09T08:47:06.575Z,4136.00
2019-03-09T08:48:06.780Z,4028.00
2019-03-09T08:49:06.920Z,5108.00
2019-03-09T08:50:07.104Z,4652.00
2019-03-09T08:51:07.280Z,4508.00
2019-03-09T08:52:07.443Z,4640.00
2019-03-09T08:53:07.625Z,5044.00
2019-03-09T08:54:07.798Z,4592.00
2019-03-09T08:55:07.967Z,4744.00
2019-03-09T08:56:08.134Z,4584.00
2019-03-09T08:57:08.333Z,4500.00
2019-03-09T08:58:08.511Z,4176.00
2019-03-09T08:59:08.690Z,4456.00
2019-03-09T09:00:08.819Z,4436.00
2019-03-09T09:02:09.164Z,5212.00
2019-03-09T09:03:09.334Z,5288.00
2019-03-09T09:04:09.495Z,5536.00
2019-03-09T09:05:09.686Z,5732.00
2019-03-09T09:06:09.857Z,5956.00
2019-03-09T09:07:10.021Z,6244.00
2019-03-09T09:08:10.213Z,6380.00
2019-03-09T09:09:10.375Z,5896.00
2019-03-09T09:10:10.563Z,5392.00
2019-03-09T09:11:10.719Z,5100.00
2019-03-09T09:12:10.911Z,4764.00
2019-03-09T09:13:11.090Z,4472.00
2019-03-09T09:14:11.279Z,4260.00
2019-03-09T09:15:11.402Z,4104.00
2019-03-09T09:16:11.574Z,4012.00
2019-03-09T09:17:11.750Z,3876.00
2019-03-09T09:18:11.932Z,3796.00
2019-03-09T09:19:12.098Z,3732.00
2019-03-09T09:20:12.272Z,3696.00
2019-03-09T09:21:12.618Z,3788.00
2019-03-09T09:22:14.079Z,3748.00
2019-03-09T09:23:12.788Z,3660.00
2019-03-09T09:24:12.960Z,3620.00
2019-03-09T09:25:13.162Z,3732.00
2019-03-09T09:26:13.323Z,3920.00
2019-03-09T09:27:13.470Z,4108.00
2019-03-09T09:28:13.637Z,4304.00
2019-03-09T09:29:13.875Z,4652.00
2019-03-09T09:30:13.990Z,4944.00
2019-03-09T09:31:14.193Z,5216.00
2019-03-09T09:32:14.369Z,5336.00
2019-03-09T09:33:14.536Z,5520.00
2019-03-09T09:34:14.723Z,5680.00
2019-03-09T09:35:14.894Z,5640.00
2019-03-09T09:36:15.072Z,5668.00
2019-03-09T09:37:15.240Z,5580.00
2019-03-09T09:38:15.420Z,5788.00
2019-03-09T09:39:15.589Z,5676.00
2019-03-09T09:40:15.781Z,5464.00
2019-03-09T09:41:15.953Z,5204.00
2019-03-09T09:42:16.116Z,4840.00
2019-03-09T09:43:16.292Z,4616.00
2019-03-09T09:44:16.472Z,4640.00
2019-03-09T09:45:16.657Z,4692.00
2019-03-09T09:46:16.827Z,4756.00
2019-03-09T09:47:17.004Z,4568.00
2019-03-09T09:48:17.180Z,4416.00
2019-03-09T09:49:17.357Z,4140.00
2019-03-09T09:50:17.535Z,3720.00
2019-03-09T09:51:17.698Z,3940.00
2019-03-09T09:52:17.881Z,3712.00
2019-03-09T09:53:18.048Z,3300.00
2019-03-09T09:54:18.225Z,3220.00
2019-03-09T09:55:18.411Z,3064.00
2019-03-09T09:56:18.579Z,3396.00
2019-03-09T09:57:18.772Z,3256.00
2019-03-09T09:58:18.936Z,3348.00
2019-03-09T09:59:19.128Z,3292.00
2019-03-09T10:00:19.289Z,2968.00
2019-03-09T10:01:19.470Z,2556.00
2019-03-09T10:02:19.636Z,2548.00
2019-03-09T10:03:19.821Z,2496.00
2019-03-09T10:04:19.985Z,2764.00
2019-03-09T10:05:20.161Z,3016.00
2019-03-09T10:06:20.344Z,3220.00
2019-03-09T10:07:20.508Z,3472.00
2019-03-09T10:08:20.683Z,3736.00
2019-03-09T10:09:20.853Z,3804.00
2019-03-09T10:10:21.021Z,3800.00
2019-03-09T10:11:21.199Z,3932.00
2019-03-09T10:12:21.371Z,4048.00
2019-03-09T10:13:21.555Z,4056.00
2019-03-09T10:14:21.727Z,4084.00
2019-03-09T10:15:21.895Z,3852.00
2019-03-09T10:16:22.073Z,3776.00
2019-03-09T10:17:22.293Z,3576.00
2019-03-09T10:18:22.431Z,3348.00
2019-03-09T10:19:22.601Z,3368.00
2019-03-09T10:20:22.790Z,2780.00
2019-03-09T10:21:22.963Z,2456.00
2019-03-09T10:22:23.133Z,2324.00
2019-03-09T10:23:23.317Z,2444.00
2019-03-09T10:24:23.505Z,2260.00
2019-03-09T10:25:23.660Z,2536.00
2019-03-09T10:26:26.576Z,2428.00
2019-03-09T10:27:24.010Z,2708.00
2019-03-09T10:28:24.189Z,3212.00
2019-03-09T10:29:24.369Z,2928.00
2019-03-09T10:30:24.573Z,3256.00
2019-03-09T10:31:24.698Z,3408.00
2019-03-09T10:32:24.856Z,3400.00
2019-03-09T10:33:25.016Z,3120.00
2019-03-09T10:34:25.184Z,3556.00
2019-03-09T10:35:25.366Z,3860.00
2019-03-09T10:36:25.532Z,3976.00
2019-03-09T10:37:25.733Z,3352.00
2019-03-09T10:38:27.948Z,3252.00
2019-03-09T10:39:26.084Z,3528.00
2019-03-09T10:40:26.326Z,3752.00
2019-03-09T10:41:26.441Z,3864.00
2019-03-09T10:42:26.615Z,4104.00
2019-03-09T10:43:26.777Z,4280.00
2019-03-09T10:44:26.961Z,4372.00
2019-03-09T10:45:27.123Z,4312.00
2019-03-09T10:46:27.299Z,4084.00
2019-03-09T10:47:27.480Z,3684.00
2019-03-09T10:48:27.640Z,2976.00
2019-03-09T10:49:27.825Z,3016.00
2019-03-09T10:50:28.023Z,2956.00
2019-03-09T10:51:28.158Z,2968.00
2019-03-09T10:52:28.314Z,3032.00
2019-03-09T10:53:29.320Z,2996.00
2019-03-09T10:54:35.747Z,2856.00
2019-03-09T10:55:28.854Z,2464.00
2019-03-09T10:56:29.234Z,2552.00
2019-03-09T10:57:29.204Z,2720.00
2019-03-09T10:58:29.387Z,2948.00
2019-03-09T10:59:29.566Z,3196.00
2019-03-09T11:00:29.743Z,3152.00
2019-03-09T11:01:29.904Z,3084.00
2019-03-09T11:02:30.077Z,3060.00
2019-03-09T11:03:30.245Z,2976.00
2019-03-09T11:04:30.442Z,3388.00
2019-03-09T11:05:30.636Z,3392.00
2019-03-09T11:06:30.796Z,2976.00
2019-03-09T11:07:30.956Z,2556.00
2019-03-09T11:08:31.162Z,2548.00
2019-03-09T11:09:31.289Z,3108.00
2019-03-09T11:10:31.470Z,2932.00
2019-03-09T11:11:31.631Z,2552.00
2019-03-09T11:12:31.803Z,2808.00
2019-03-09T11:13:31.966Z,2924.00
2019-03-09T11:14:32.139Z,3100.00
2019-03-09T11:15:32.395Z,3556.00
2019-03-09T11:16:32.519Z,3772.00
2019-03-09T11:17:32.694Z,3860.00
2019-03-09T11:18:35.051Z,3660.00
2019-03-09T11:19:33.080Z,4204.00
2019-03-09T11:20:33.245Z,4412.00
2019-03-09T11:21:33.399Z,4408.00
2019-03-09T11:22:33.947Z,4380.00
2019-03-09T11:23:34.536Z,4340.00
2019-03-09T11:24:33.906Z,4564.00
2019-03-09T11:25:34.071Z,4504.00
2019-03-09T11:26:34.246Z,4568.00
2019-03-09T11:27:34.407Z,4668.00
2019-03-09T11:28:34.587Z,4796.00
2019-03-09T11:29:34.760Z,4844.00
2019-03-09T11:30:34.925Z,4860.00
2019-03-09T11:31:35.107Z,4828.00
2019-03-09T11:32:35.287Z,4864.00
2019-03-09T11:33:35.469Z,4880.00
2019-03-09T11:34:35.608Z,4904.00
2019-03-09T11:35:35.792Z,5032.00
2019-03-09T11:36:35.974Z,5240.00
2019-03-09T11:37:36.135Z,5520.00
2019-03-09T11:38:36.318Z,5648.00
2019-03-09T11:39:36.491Z,5640.00
2019-03-09T11:40:36.681Z,5588.00
2019-03-09T11:41:36.842Z,5656.00
2019-03-09T11:42:37.025Z,5692.00
2019-03-09T11:43:37.192Z,5720.00
2019-03-09T11:44:37.367Z,5700.00
2019-03-09T11:45:37.544Z,5656.00
2019-03-09T11:46:37.749Z,5564.00
2019-03-09T11:47:37.894Z,5616.00
2019-03-09T11:48:38.056Z,5784.00
2019-03-09T11:49:38.228Z,6048.00
2019-03-09T11:50:38.426Z,5916.00
2019-03-09T11:51:38.564Z,6036.00
2019-03-09T11:52:38.723Z,7312.00
2019-03-09T11:53:38.900Z,6972.00
2019-03-09T11:54:39.101Z,8224.00
2019-03-09T11:55:39.246Z,7084.00
2019-03-09T11:56:39.420Z,6020.00
2019-03-09T11:57:39.584Z,5676.00
2019-03-09T11:58:39.763Z,5964.00
2019-03-09T11:59:39.933Z,6640.00
2019-03-09T12:00:40.114Z,7348.00
2019-03-09T12:01:40.295Z,6440.00
2019-03-09T12:02:40.466Z,6192.00
2019-03-09T12:03:40.634Z,5964.00
2019-03-09T12:04:46.940Z,5952.00
2019-03-09T12:05:40.991Z,6072.00
2019-03-09T12:06:41.169Z,6332.00
2019-03-09T12:07:41.334Z,6448.00
2019-03-09T12:08:41.512Z,6216.00
2019-03-09T12:09:41.695Z,7036.00
2019-03-09T12:10:41.863Z,7500.00
2019-03-09T12:11:42.042Z,8256.00
2019-03-09T12:12:42.224Z,7828.00
2019-03-09T12:13:42.398Z,7612.00
2019-03-09T12:14:42.576Z,7124.00
2019-03-09T12:15:42.771Z,7448.00
2019-03-09T12:16:42.973Z,7380.00
2019-03-09T12:17:43.156Z,6724.00
2019-03-09T12:18:44.125Z,6440.00
2019-03-09T12:19:43.487Z,6360.00
2019-03-09T12:20:43.658Z,6196.00
2019-03-09T12:21:43.842Z,6132.00
2019-03-09T12:22:44.011Z,6024.00
2019-03-09T12:23:44.194Z,6060.00
2019-03-09T12:24:44.385Z,6504.00
2019-03-09T12:25:44.563Z,6412.00
2019-03-09T12:26:44.724Z,7956.00
2019-03-09T12:27:44.907Z,7260.00
2019-03-09T12:28:45.081Z,7040.00
2019-03-09T12:29:45.257Z,7460.00
2019-03-09T12:30:45.442Z,7272.00
2019-03-09T12:31:45.611Z,7004.00
2019-03-09T12:32:45.797Z,6188.00
2019-03-09T12:33:45.966Z,5908.00
2019-03-09T12:34:46.157Z,5276.00
2019-03-09T12:35:46.325Z,4780.00
2019-03-09T12:36:46.504Z,4296.00
2019-03-09T12:37:46.711Z,4168.00
2019-03-09T12:38:46.849Z,4388.00
2019-03-09T12:39:47.030Z,5180.00
2019-03-09T12:40:47.206Z,5068.00
2019-03-09T12:41:47.395Z,4860.00
2019-03-09T12:42:47.566Z,5004.00
2019-03-09T12:43:47.737Z,5212.00